sensor_id;sensor_type;location;lat;lon;timestamp;P1;durP1;ratioP1;P2;durP2;ratioP2
11453;SDS011;5783;55.174;61.310;2023-01-08T00:01:28;2.70;;;2.33;;
11453;SDS011;5783;55.174;61.310;2023-01-08T00:03:57;3.47;;;2.83;;
11453;SDS011;5783;55.174;61.310;2023-01-08T00:06:27;2.93;;;2.37;;
11453;SDS011;5783;55.174;61.310;2023-01-08T00:09:15;3.03;;;2.50;;
11453;SDS011;5783;55.174;61.310;2023-01-08T00:11:44;3.43;;;2.73;;
11453;SDS011;5783;55.174;61.310;2023-01-08T00:14:14;3.30;;;2.63;;
11453;SDS011;5783;55.174;61.310;2023-01-08T00:16:43;2.73;;;2.47;;
11453;SDS011;5783;55.174;61.310;2023-01-08T00:19:12;3.60;;;2.43;;
11453;SDS011;5783;55.174;61.310;2023-01-08T00:21:42;3.07;;;2.50;;
11453;SDS011;5783;55.174;61.310;2023-01-08T00:24:11;3.40;;;2.50;;
11453;SDS011;5783;55.174;61.310;2023-01-08T00:26:40;2.90;;;2.47;;
11453;SDS011;5783;55.174;61.310;2023-01-08T00:29:09;2.73;;;2.50;;
11453;SDS011;5783;55.174;61.310;2023-01-08T00:31:38;3.83;;;3.10;;
11453;SDS011;5783;55.174;61.310;2023-01-08T00:34:07;4.23;;;2.80;;
11453;SDS011;5783;55.174;61.310;2023-01-08T00:36:36;3.73;;;2.40;;
11453;SDS011;5783;55.174;61.310;2023-01-08T00:39:06;3.57;;;2.87;;
11453;SDS011;5783;55.174;61.310;2023-01-08T00:41:35;2.37;;;2.17;;
11453;SDS011;5783;55.174;61.310;2023-01-08T00:44:06;3.13;;;2.70;;
11453;SDS011;5783;55.174;61.310;2023-01-08T00:46:35;3.07;;;2.60;;
11453;SDS011;5783;55.174;61.310;2023-01-08T00:49:04;3.40;;;2.70;;
11453;SDS011;5783;55.174;61.310;2023-01-08T00:51:33;3.93;;;2.70;;
11453;SDS011;5783;55.174;61.310;2023-01-08T00:54:02;3.20;;;2.57;;
11453;SDS011;5783;55.174;61.310;2023-01-08T00:56:31;3.40;;;2.40;;
11453;SDS011;5783;55.174;61.310;2023-01-08T00:59:00;2.90;;;2.40;;
11453;SDS011;5783;55.174;61.310;2023-01-08T01:01:29;3.30;;;2.53;;
11453;SDS011;5783;55.174;61.310;2023-01-08T01:03:59;3.80;;;2.60;;
11453;SDS011;5783;55.174;61.310;2023-01-08T01:06:28;2.87;;;2.30;;
11453;SDS011;5783;55.174;61.310;2023-01-08T01:08:57;2.97;;;2.60;;
11453;SDS011;5783;55.174;61.310;2023-01-08T01:11:26;2.90;;;2.50;;
11453;SDS011;5783;55.174;61.310;2023-01-08T01:13:55;2.50;;;2.30;;
11453;SDS011;5783;55.174;61.310;2023-01-08T01:16:25;2.93;;;2.50;;
11453;SDS011;5783;55.174;61.310;2023-01-08T01:18:54;3.70;;;2.50;;
11453;SDS011;5783;55.174;61.310;2023-01-08T01:21:24;3.90;;;2.80;;
11453;SDS011;5783;55.174;61.310;2023-01-08T01:23:57;2.97;;;2.37;;
11453;SDS011;5783;55.174;61.310;2023-01-08T01:26:28;3.27;;;2.60;;
11453;SDS011;5783;55.174;61.310;2023-01-08T01:28:58;2.73;;;2.33;;
11453;SDS011;5783;55.174;61.310;2023-01-08T01:31:28;3.10;;;2.60;;
11453;SDS011;5783;55.174;61.310;2023-01-08T01:33:59;3.60;;;2.73;;
11453;SDS011;5783;55.174;61.310;2023-01-08T01:36:48;3.83;;;2.80;;
11453;SDS011;5783;55.174;61.310;2023-01-08T01:39:17;2.57;;;2.33;;
11453;SDS011;5783;55.174;61.310;2023-01-08T01:41:46;2.83;;;2.50;;
11453;SDS011;5783;55.174;61.310;2023-01-08T01:47:27;3.50;;;2.57;;
11453;SDS011;5783;55.174;61.310;2023-01-08T01:52:50;2.97;;;2.57;;
11453;SDS011;5783;55.174;61.310;2023-01-08T01:55:39;2.63;;;2.40;;
11453;SDS011;5783;55.174;61.310;2023-01-08T01:58:11;2.67;;;2.47;;
11453;SDS011;5783;55.174;61.310;2023-01-08T02:01:02;3.67;;;2.67;;
11453;SDS011;5783;55.174;61.310;2023-01-08T02:03:34;3.57;;;2.50;;
11453;SDS011;5783;55.174;61.310;2023-01-08T02:12:23;2.80;;;2.40;;
11453;SDS011;5783;55.174;61.310;2023-01-08T02:21:11;3.70;;;2.90;;
11453;SDS011;5783;55.174;61.310;2023-01-08T02:31:54;3.80;;;2.70;;
11453;SDS011;5783;55.174;61.310;2023-01-08T02:34:24;2.87;;;2.57;;
11453;SDS011;5783;55.174;61.310;2023-01-08T02:36:55;3.37;;;2.57;;
11453;SDS011;5783;55.174;61.310;2023-01-08T02:42:37;3.20;;;2.63;;
11453;SDS011;5783;55.174;61.310;2023-01-08T02:45:09;3.17;;;2.40;;
11453;SDS011;5783;55.174;61.310;2023-01-08T02:59:00;3.23;;;2.50;;
11453;SDS011;5783;55.174;61.310;2023-01-08T03:01:31;2.40;;;2.20;;
11453;SDS011;5783;55.174;61.310;2023-01-08T03:06:51;2.83;;;2.53;;
11453;SDS011;5783;55.174;61.310;2023-01-08T03:09:21;2.53;;;2.33;;
11453;SDS011;5783;55.174;61.310;2023-01-08T03:14:59;3.40;;;2.63;;
11453;SDS011;5783;55.174;61.310;2023-01-08T03:17:50;3.57;;;2.60;;
11453;SDS011;5783;55.174;61.310;2023-01-08T03:20:22;3.07;;;2.20;;
11453;SDS011;5783;55.174;61.310;2023-01-08T03:22:54;3.10;;;2.30;;
11453;SDS011;5783;55.174;61.310;2023-01-08T03:25:25;2.83;;;2.53;;
11453;SDS011;5783;55.174;61.310;2023-01-08T03:27:58;3.20;;;2.57;;
11453;SDS011;5783;55.174;61.310;2023-01-08T03:30:29;2.37;;;2.10;;
11453;SDS011;5783;55.174;61.310;2023-01-08T03:33:00;3.47;;;2.40;;
11453;SDS011;5783;55.174;61.310;2023-01-08T03:35:31;2.93;;;2.47;;
11453;SDS011;5783;55.174;61.310;2023-01-08T03:38:41;3.00;;;2.30;;
11453;SDS011;5783;55.174;61.310;2023-01-08T03:41:31;2.97;;;2.53;;
11453;SDS011;5783;55.174;61.310;2023-01-08T03:44:02;3.07;;;2.60;;
11453;SDS011;5783;55.174;61.310;2023-01-08T03:46:31;2.83;;;2.53;;
11453;SDS011;5783;55.174;61.310;2023-01-08T03:49:03;3.13;;;2.50;;
11453;SDS011;5783;55.174;61.310;2023-01-08T03:54:24;3.17;;;2.30;;
11453;SDS011;5783;55.174;61.310;2023-01-08T03:56:55;3.17;;;2.60;;
11453;SDS011;5783;55.174;61.310;2023-01-08T03:59:24;2.80;;;2.20;;
11453;SDS011;5783;55.174;61.310;2023-01-08T04:01:53;2.80;;;2.50;;
11453;SDS011;5783;55.174;61.310;2023-01-08T04:04:23;2.60;;;2.40;;
11453;SDS011;5783;55.174;61.310;2023-01-08T04:06:52;3.27;;;2.40;;
11453;SDS011;5783;55.174;61.310;2023-01-08T04:09:40;2.97;;;2.50;;
11453;SDS011;5783;55.174;61.310;2023-01-08T04:12:10;2.70;;;2.47;;
11453;SDS011;5783;55.174;61.310;2023-01-08T04:14:39;3.87;;;2.60;;
11453;SDS011;5783;55.174;61.310;2023-01-08T04:19:57;2.60;;;2.40;;
11453;SDS011;5783;55.174;61.310;2023-01-08T04:22:26;2.57;;;2.37;;
11453;SDS011;5783;55.174;61.310;2023-01-08T04:24:55;3.20;;;2.70;;
11453;SDS011;5783;55.174;61.310;2023-01-08T04:27:26;3.33;;;2.60;;
11453;SDS011;5783;55.174;61.310;2023-01-08T04:29:55;3.20;;;2.70;;
11453;SDS011;5783;55.174;61.310;2023-01-08T04:32:24;3.20;;;2.70;;
11453;SDS011;5783;55.174;61.310;2023-01-08T04:34:53;3.00;;;2.40;;
11453;SDS011;5783;55.174;61.310;2023-01-08T04:37:42;3.83;;;2.87;;
11453;SDS011;5783;55.174;61.310;2023-01-08T04:40:11;4.23;;;2.80;;
11453;SDS011;5783;55.174;61.310;2023-01-08T04:42:40;3.63;;;3.00;;
11453;SDS011;5783;55.174;61.310;2023-01-08T04:45:09;3.43;;;2.97;;
11453;SDS011;5783;55.174;61.310;2023-01-08T04:47:39;3.90;;;2.80;;
11453;SDS011;5783;55.174;61.310;2023-01-08T04:50:07;3.93;;;3.00;;
11453;SDS011;5783;55.174;61.310;2023-01-08T04:52:37;3.77;;;3.00;;
11453;SDS011;5783;55.174;61.310;2023-01-08T04:55:05;3.10;;;2.70;;
11453;SDS011;5783;55.174;61.310;2023-01-08T04:57:35;3.97;;;3.20;;
11453;SDS011;5783;55.174;61.310;2023-01-08T05:00:04;3.87;;;2.90;;
11453;SDS011;5783;55.174;61.310;2023-01-08T05:02:34;3.60;;;3.03;;
11453;SDS011;5783;55.174;61.310;2023-01-08T05:05:04;6.00;;;3.03;;
11453;SDS011;5783;55.174;61.310;2023-01-08T05:07:34;5.10;;;3.13;;
11453;SDS011;5783;55.174;61.310;2023-01-08T05:10:03;3.93;;;3.00;;
11453;SDS011;5783;55.174;61.310;2023-01-08T05:12:33;3.40;;;2.80;;
11453;SDS011;5783;55.174;61.310;2023-01-08T05:15:02;3.87;;;3.00;;
11453;SDS011;5783;55.174;61.310;2023-01-08T05:17:31;5.13;;;3.20;;
11453;SDS011;5783;55.174;61.310;2023-01-08T05:20:00;3.17;;;2.87;;
11453;SDS011;5783;55.174;61.310;2023-01-08T05:22:30;4.63;;;2.70;;
11453;SDS011;5783;55.174;61.310;2023-01-08T05:24:59;4.90;;;3.30;;
11453;SDS011;5783;55.174;61.310;2023-01-08T05:27:30;3.67;;;2.90;;
11453;SDS011;5783;55.174;61.310;2023-01-08T05:29:59;3.73;;;2.90;;
11453;SDS011;5783;55.174;61.310;2023-01-08T05:32:28;3.93;;;2.90;;
11453;SDS011;5783;55.174;61.310;2023-01-08T05:37:30;5.07;;;3.10;;
11453;SDS011;5783;55.174;61.310;2023-01-08T05:40:20;5.40;;;3.07;;
11453;SDS011;5783;55.174;61.310;2023-01-08T05:42:49;4.10;;;3.27;;
11453;SDS011;5783;55.174;61.310;2023-01-08T05:45:18;4.50;;;2.57;;
11453;SDS011;5783;55.174;61.310;2023-01-08T05:47:48;3.97;;;3.07;;
11453;SDS011;5783;55.174;61.310;2023-01-08T05:50:16;4.53;;;3.40;;
11453;SDS011;5783;55.174;61.310;2023-01-08T05:52:45;4.07;;;3.37;;
11453;SDS011;5783;55.174;61.310;2023-01-08T05:55:14;4.57;;;2.90;;
11453;SDS011;5783;55.174;61.310;2023-01-08T05:57:44;3.83;;;3.17;;
11453;SDS011;5783;55.174;61.310;2023-01-08T06:00:13;3.97;;;3.03;;
11453;SDS011;5783;55.174;61.310;2023-01-08T06:05:32;3.77;;;2.83;;
11453;SDS011;5783;55.174;61.310;2023-01-08T06:08:01;4.17;;;2.87;;
11453;SDS011;5783;55.174;61.310;2023-01-08T06:10:31;3.87;;;3.10;;
11453;SDS011;5783;55.174;61.310;2023-01-08T06:12:59;4.40;;;2.83;;
11453;SDS011;5783;55.174;61.310;2023-01-08T06:15:28;4.20;;;3.20;;
11453;SDS011;5783;55.174;61.310;2023-01-08T06:18:00;4.60;;;3.30;;
11453;SDS011;5783;55.174;61.310;2023-01-08T06:20:47;4.27;;;3.20;;
11453;SDS011;5783;55.174;61.310;2023-01-08T06:23:16;3.97;;;3.10;;
11453;SDS011;5783;55.174;61.310;2023-01-08T06:26:16;5.33;;;3.13;;
11453;SDS011;5783;55.174;61.310;2023-01-08T06:28:37;4.47;;;3.40;;
11453;SDS011;5783;55.174;61.310;2023-01-08T06:31:24;3.70;;;3.10;;
11453;SDS011;5783;55.174;61.310;2023-01-08T06:33:53;3.23;;;2.87;;
11453;SDS011;5783;55.174;61.310;2023-01-08T06:36:23;4.27;;;3.20;;
11453;SDS011;5783;55.174;61.310;2023-01-08T06:38:52;3.90;;;3.27;;
11453;SDS011;5783;55.174;61.310;2023-01-08T06:41:21;3.80;;;2.97;;
11453;SDS011;5783;55.174;61.310;2023-01-08T06:43:50;3.53;;;2.83;;
11453;SDS011;5783;55.174;61.310;2023-01-08T06:46:19;3.50;;;3.00;;
11453;SDS011;5783;55.174;61.310;2023-01-08T06:48:49;4.13;;;3.20;;
11453;SDS011;5783;55.174;61.310;2023-01-08T06:51:19;3.93;;;3.13;;
11453;SDS011;5783;55.174;61.310;2023-01-08T06:53:48;4.27;;;3.17;;
11453;SDS011;5783;55.174;61.310;2023-01-08T06:56:17;4.10;;;2.90;;
11453;SDS011;5783;55.174;61.310;2023-01-08T06:58:47;4.53;;;3.27;;
11453;SDS011;5783;55.174;61.310;2023-01-08T07:01:16;3.97;;;3.17;;
11453;SDS011;5783;55.174;61.310;2023-01-08T07:03:45;3.57;;;3.03;;
11453;SDS011;5783;55.174;61.310;2023-01-08T07:06:15;4.07;;;3.23;;
11453;SDS011;5783;55.174;61.310;2023-01-08T07:09:08;3.53;;;2.90;;
11453;SDS011;5783;55.174;61.310;2023-01-08T07:11:57;3.60;;;2.97;;
11453;SDS011;5783;55.174;61.310;2023-01-08T07:14:25;4.20;;;3.13;;
11453;SDS011;5783;55.174;61.310;2023-01-08T07:16:55;5.27;;;3.40;;
11453;SDS011;5783;55.174;61.310;2023-01-08T07:19:43;4.43;;;2.80;;
11453;SDS011;5783;55.174;61.310;2023-01-08T07:22:13;3.97;;;3.20;;
11453;SDS011;5783;55.174;61.310;2023-01-08T07:24:41;3.83;;;3.00;;
11453;SDS011;5783;55.174;61.310;2023-01-08T07:27:10;4.53;;;3.17;;
11453;SDS011;5783;55.174;61.310;2023-01-08T07:29:59;4.17;;;3.10;;
11453;SDS011;5783;55.174;61.310;2023-01-08T07:32:30;3.90;;;2.73;;
11453;SDS011;5783;55.174;61.310;2023-01-08T07:34:59;4.60;;;3.20;;
11453;SDS011;5783;55.174;61.310;2023-01-08T07:37:28;4.10;;;3.10;;
11453;SDS011;5783;55.174;61.310;2023-01-08T07:39:57;5.83;;;3.30;;
11453;SDS011;5783;55.174;61.310;2023-01-08T07:42:26;4.57;;;2.90;;
11453;SDS011;5783;55.174;61.310;2023-01-08T07:44:55;4.17;;;2.80;;
11453;SDS011;5783;55.174;61.310;2023-01-08T07:47:25;4.10;;;3.00;;
11453;SDS011;5783;55.174;61.310;2023-01-08T07:49:54;4.20;;;3.20;;
11453;SDS011;5783;55.174;61.310;2023-01-08T07:52:23;3.87;;;2.70;;
11453;SDS011;5783;55.174;61.310;2023-01-08T07:54:52;4.33;;;2.87;;
11453;SDS011;5783;55.174;61.310;2023-01-08T07:57:21;5.33;;;3.00;;
11453;SDS011;5783;55.174;61.310;2023-01-08T07:59:51;3.20;;;2.90;;
11453;SDS011;5783;55.174;61.310;2023-01-08T08:02:20;4.07;;;2.90;;
11453;SDS011;5783;55.174;61.310;2023-01-08T08:04:49;4.63;;;2.90;;
11453;SDS011;5783;55.174;61.310;2023-01-08T08:07:18;4.00;;;2.90;;
11453;SDS011;5783;55.174;61.310;2023-01-08T08:09:47;3.27;;;2.60;;
11453;SDS011;5783;55.174;61.310;2023-01-08T08:12:16;4.33;;;3.03;;
11453;SDS011;5783;55.174;61.310;2023-01-08T08:14:45;3.10;;;2.80;;
11453;SDS011;5783;55.174;61.310;2023-01-08T08:17:14;3.93;;;2.70;;
11453;SDS011;5783;55.174;61.310;2023-01-08T08:19:44;3.37;;;2.80;;
11453;SDS011;5783;55.174;61.310;2023-01-08T08:22:13;4.20;;;3.00;;
11453;SDS011;5783;55.174;61.310;2023-01-08T08:24:42;4.27;;;2.87;;
11453;SDS011;5783;55.174;61.310;2023-01-08T08:27:11;4.07;;;2.70;;
11453;SDS011;5783;55.174;61.310;2023-01-08T08:29:40;3.77;;;2.80;;
11453;SDS011;5783;55.174;61.310;2023-01-08T08:32:09;4.27;;;2.90;;
11453;SDS011;5783;55.174;61.310;2023-01-08T08:34:38;6.43;;;3.03;;
11453;SDS011;5783;55.174;61.310;2023-01-08T08:37:08;4.60;;;3.07;;
11453;SDS011;5783;55.174;61.310;2023-01-08T08:39:37;3.70;;;2.90;;
11453;SDS011;5783;55.174;61.310;2023-01-08T08:42:06;4.00;;;2.73;;
11453;SDS011;5783;55.174;61.310;2023-01-08T08:44:35;4.30;;;2.90;;
11453;SDS011;5783;55.174;61.310;2023-01-08T08:49:53;3.40;;;2.80;;
11453;SDS011;5783;55.174;61.310;2023-01-08T08:52:22;4.57;;;2.87;;
11453;SDS011;5783;55.174;61.310;2023-01-08T08:54:51;4.13;;;2.70;;
11453;SDS011;5783;55.174;61.310;2023-01-08T08:57:22;3.67;;;2.70;;
11453;SDS011;5783;55.174;61.310;2023-01-08T08:59:52;4.37;;;2.90;;
11453;SDS011;5783;55.174;61.310;2023-01-08T09:02:41;3.80;;;2.87;;
11453;SDS011;5783;55.174;61.310;2023-01-08T09:05:10;4.03;;;2.83;;
11453;SDS011;5783;55.174;61.310;2023-01-08T09:07:39;4.63;;;3.00;;
11453;SDS011;5783;55.174;61.310;2023-01-08T09:10:08;4.10;;;3.20;;
11453;SDS011;5783;55.174;61.310;2023-01-08T09:12:38;4.17;;;2.93;;
11453;SDS011;5783;55.174;61.310;2023-01-08T09:15:07;3.47;;;2.77;;
11453;SDS011;5783;55.174;61.310;2023-01-08T09:17:36;3.93;;;2.83;;
11453;SDS011;5783;55.174;61.310;2023-01-08T09:20:06;3.57;;;3.00;;
11453;SDS011;5783;55.174;61.310;2023-01-08T09:22:36;4.03;;;2.90;;
11453;SDS011;5783;55.174;61.310;2023-01-08T09:25:05;4.80;;;2.80;;
11453;SDS011;5783;55.174;61.310;2023-01-08T09:27:34;4.10;;;2.90;;
11453;SDS011;5783;55.174;61.310;2023-01-08T09:30:04;4.07;;;2.97;;
11453;SDS011;5783;55.174;61.310;2023-01-08T09:32:33;3.97;;;2.90;;
11453;SDS011;5783;55.174;61.310;2023-01-08T09:35:03;4.23;;;2.93;;
11453;SDS011;5783;55.174;61.310;2023-01-08T09:37:32;2.87;;;2.57;;
11453;SDS011;5783;55.174;61.310;2023-01-08T09:40:01;3.40;;;2.97;;
11453;SDS011;5783;55.174;61.310;2023-01-08T09:42:31;5.03;;;2.97;;
11453;SDS011;5783;55.174;61.310;2023-01-08T09:45:01;3.83;;;2.90;;
11453;SDS011;5783;55.174;61.310;2023-01-08T09:50:21;4.43;;;2.80;;
11453;SDS011;5783;55.174;61.310;2023-01-08T09:52:53;3.63;;;2.77;;
11453;SDS011;5783;55.174;61.310;2023-01-08T09:55:22;3.00;;;2.63;;
11453;SDS011;5783;55.174;61.310;2023-01-08T09:57:52;4.17;;;2.80;;
11453;SDS011;5783;55.174;61.310;2023-01-08T10:03:10;3.90;;;3.17;;
11453;SDS011;5783;55.174;61.310;2023-01-08T10:05:40;4.60;;;3.37;;
11453;SDS011;5783;55.174;61.310;2023-01-08T10:08:10;4.30;;;3.17;;
11453;SDS011;5783;55.174;61.310;2023-01-08T10:10:41;4.20;;;2.97;;
11453;SDS011;5783;55.174;61.310;2023-01-08T10:13:11;4.93;;;2.87;;
11453;SDS011;5783;55.174;61.310;2023-01-08T10:15:42;3.77;;;3.00;;
11453;SDS011;5783;55.174;61.310;2023-01-08T10:18:31;3.63;;;2.67;;
11453;SDS011;5783;55.174;61.310;2023-01-08T10:21:02;3.80;;;2.87;;
11453;SDS011;5783;55.174;61.310;2023-01-08T10:23:31;3.30;;;2.60;;
11453;SDS011;5783;55.174;61.310;2023-01-08T10:26:01;4.07;;;3.10;;
11453;SDS011;5783;55.174;61.310;2023-01-08T10:28:32;3.80;;;2.73;;
11453;SDS011;5783;55.174;61.310;2023-01-08T10:31:42;4.73;;;3.00;;
11453;SDS011;5783;55.174;61.310;2023-01-08T10:33:54;4.20;;;3.10;;
11453;SDS011;5783;55.174;61.310;2023-01-08T10:36:24;3.60;;;2.60;;
11453;SDS011;5783;55.174;61.310;2023-01-08T10:42:04;4.80;;;2.80;;
11453;SDS011;5783;55.174;61.310;2023-01-08T10:44:34;4.10;;;2.70;;
11453;SDS011;5783;55.174;61.310;2023-01-08T10:47:04;4.37;;;2.70;;
11453;SDS011;5783;55.174;61.310;2023-01-08T10:52:20;3.13;;;2.63;;
11453;SDS011;5783;55.174;61.310;2023-01-08T11:00:39;3.67;;;2.77;;
11453;SDS011;5783;55.174;61.310;2023-01-08T11:03:17;3.70;;;2.87;;
11453;SDS011;5783;55.174;61.310;2023-01-08T11:05:59;3.20;;;2.60;;
11453;SDS011;5783;55.174;61.310;2023-01-08T11:08:33;3.50;;;3.00;;
11453;SDS011;5783;55.174;61.310;2023-01-08T11:11:03;4.00;;;2.70;;
11453;SDS011;5783;55.174;61.310;2023-01-08T11:19:54;3.97;;;2.97;;
11453;SDS011;5783;55.174;61.310;2023-01-08T11:22:24;4.10;;;2.90;;
11453;SDS011;5783;55.174;61.310;2023-01-08T11:24:55;4.07;;;2.70;;
11453;SDS011;5783;55.174;61.310;2023-01-08T11:33:04;4.57;;;3.00;;
11453;SDS011;5783;55.174;61.310;2023-01-08T11:35:35;3.97;;;3.03;;
11453;SDS011;5783;55.174;61.310;2023-01-08T11:38:10;3.43;;;2.73;;
11453;SDS011;5783;55.174;61.310;2023-01-08T11:46:41;4.83;;;2.80;;
11453;SDS011;5783;55.174;61.310;2023-01-08T11:50:02;3.20;;;2.90;;
11453;SDS011;5783;55.174;61.310;2023-01-08T11:58:21;4.50;;;3.17;;
11453;SDS011;5783;55.174;61.310;2023-01-08T12:07:10;4.93;;;2.93;;
11453;SDS011;5783;55.174;61.310;2023-01-08T12:10:00;3.70;;;2.70;;
11453;SDS011;5783;55.174;61.310;2023-01-08T12:12:51;3.47;;;2.73;;
11453;SDS011;5783;55.174;61.310;2023-01-08T12:15:40;3.10;;;2.77;;
11453;SDS011;5783;55.174;61.310;2023-01-08T12:38:59;4.50;;;3.03;;
11453;SDS011;5783;55.174;61.310;2023-01-08T12:41:30;3.37;;;2.67;;
11453;SDS011;5783;55.174;61.310;2023-01-08T12:44:02;3.77;;;2.80;;
11453;SDS011;5783;55.174;61.310;2023-01-08T12:46:35;4.03;;;2.90;;
11453;SDS011;5783;55.174;61.310;2023-01-08T12:49:07;4.47;;;3.20;;
11453;SDS011;5783;55.174;61.310;2023-01-08T12:51:40;4.37;;;3.17;;
11453;SDS011;5783;55.174;61.310;2023-01-08T12:54:31;4.40;;;3.10;;
11453;SDS011;5783;55.174;61.310;2023-01-08T13:03:02;3.63;;;2.90;;
11453;SDS011;5783;55.174;61.310;2023-01-08T13:05:34;3.93;;;2.87;;
11453;SDS011;5783;55.174;61.310;2023-01-08T13:08:42;4.57;;;2.80;;
11453;SDS011;5783;55.174;61.310;2023-01-08T13:10:56;3.73;;;2.87;;
11453;SDS011;5783;55.174;61.310;2023-01-08T13:16:18;3.63;;;2.80;;
11453;SDS011;5783;55.174;61.310;2023-01-08T13:19:23;4.03;;;2.70;;
11453;SDS011;5783;55.174;61.310;2023-01-08T13:24:29;3.67;;;2.90;;
11453;SDS011;5783;55.174;61.310;2023-01-08T13:29:51;3.47;;;2.80;;
11453;SDS011;5783;55.174;61.310;2023-01-08T13:35:31;3.87;;;3.07;;
11453;SDS011;5783;55.174;61.310;2023-01-08T13:40:49;3.37;;;2.70;;
11453;SDS011;5783;55.174;61.310;2023-01-08T13:51:38;4.40;;;3.20;;
11453;SDS011;5783;55.174;61.310;2023-01-08T13:57:13;3.80;;;3.00;;
11453;SDS011;5783;55.174;61.310;2023-01-08T14:05:26;3.60;;;2.90;;
11453;SDS011;5783;55.174;61.310;2023-01-08T14:07:56;4.93;;;2.70;;
11453;SDS011;5783;55.174;61.310;2023-01-08T14:10:26;4.03;;;2.90;;
11453;SDS011;5783;55.174;61.310;2023-01-08T14:15:46;3.43;;;2.57;;
11453;SDS011;5783;55.174;61.310;2023-01-08T14:18:16;3.00;;;2.70;;
11453;SDS011;5783;55.174;61.310;2023-01-08T14:20:47;4.27;;;2.90;;
11453;SDS011;5783;55.174;61.310;2023-01-08T14:23:39;5.13;;;2.90;;
11453;SDS011;5783;55.174;61.310;2023-01-08T14:26:40;4.47;;;3.00;;
11453;SDS011;5783;55.174;61.310;2023-01-08T14:29:20;4.63;;;2.80;;
11453;SDS011;5783;55.174;61.310;2023-01-08T14:31:51;4.07;;;3.00;;
11453;SDS011;5783;55.174;61.310;2023-01-08T14:34:23;4.00;;;2.73;;
11453;SDS011;5783;55.174;61.310;2023-01-08T14:36:55;4.00;;;2.97;;
11453;SDS011;5783;55.174;61.310;2023-01-08T14:51:07;3.80;;;2.90;;
11453;SDS011;5783;55.174;61.310;2023-01-08T14:56:29;3.93;;;2.80;;
11453;SDS011;5783;55.174;61.310;2023-01-08T15:01:52;3.70;;;2.30;;
11453;SDS011;5783;55.174;61.310;2023-01-08T15:04:23;2.93;;;2.43;;
11453;SDS011;5783;55.174;61.310;2023-01-08T15:10:02;3.30;;;2.40;;
11453;SDS011;5783;55.174;61.310;2023-01-08T15:12:33;3.20;;;2.60;;
11453;SDS011;5783;55.174;61.310;2023-01-08T15:17:51;3.23;;;2.50;;
11453;SDS011;5783;55.174;61.310;2023-01-08T15:20:21;3.30;;;2.53;;
11453;SDS011;5783;55.174;61.310;2023-01-08T15:22:53;3.03;;;2.63;;
11453;SDS011;5783;55.174;61.310;2023-01-08T15:30:45;3.90;;;2.43;;
11453;SDS011;5783;55.174;61.310;2023-01-08T15:36:04;3.50;;;2.37;;
11453;SDS011;5783;55.174;61.310;2023-01-08T15:38:34;2.90;;;2.47;;
11453;SDS011;5783;55.174;61.310;2023-01-08T15:41:03;3.60;;;2.70;;
11453;SDS011;5783;55.174;61.310;2023-01-08T15:43:32;3.57;;;2.50;;
11453;SDS011;5783;55.174;61.310;2023-01-08T15:46:02;3.10;;;2.40;;
11453;SDS011;5783;55.174;61.310;2023-01-08T15:48:34;2.93;;;2.60;;
11453;SDS011;5783;55.174;61.310;2023-01-08T15:51:03;3.87;;;2.40;;
11453;SDS011;5783;55.174;61.310;2023-01-08T15:53:33;3.00;;;2.50;;
11453;SDS011;5783;55.174;61.310;2023-01-08T15:56:02;3.97;;;2.43;;
11453;SDS011;5783;55.174;61.310;2023-01-08T15:58:31;2.90;;;2.30;;
11453;SDS011;5783;55.174;61.310;2023-01-08T16:01:00;2.97;;;2.50;;
11453;SDS011;5783;55.174;61.310;2023-01-08T16:03:29;3.67;;;2.63;;
11453;SDS011;5783;55.174;61.310;2023-01-08T16:05:59;3.17;;;2.47;;
11453;SDS011;5783;55.174;61.310;2023-01-08T16:08:29;3.70;;;2.57;;
11453;SDS011;5783;55.174;61.310;2023-01-08T16:10:58;3.20;;;2.30;;
11453;SDS011;5783;55.174;61.310;2023-01-08T16:13:27;3.17;;;2.37;;
11453;SDS011;5783;55.174;61.310;2023-01-08T16:16:16;3.50;;;2.80;;
11453;SDS011;5783;55.174;61.310;2023-01-08T16:18:46;2.80;;;2.50;;
11453;SDS011;5783;55.174;61.310;2023-01-08T16:21:15;3.40;;;2.60;;
11453;SDS011;5783;55.174;61.310;2023-01-08T16:23:44;3.20;;;2.50;;
11453;SDS011;5783;55.174;61.310;2023-01-08T16:26:13;3.60;;;2.70;;
11453;SDS011;5783;55.174;61.310;2023-01-08T16:28:43;3.13;;;2.47;;
11453;SDS011;5783;55.174;61.310;2023-01-08T16:31:12;2.80;;;2.30;;
11453;SDS011;5783;55.174;61.310;2023-01-08T16:33:41;4.67;;;2.70;;
11453;SDS011;5783;55.174;61.310;2023-01-08T16:36:12;2.90;;;2.60;;
11453;SDS011;5783;55.174;61.310;2023-01-08T16:38:41;2.83;;;2.13;;
11453;SDS011;5783;55.174;61.310;2023-01-08T16:41:10;2.77;;;2.30;;
11453;SDS011;5783;55.174;61.310;2023-01-08T16:43:39;2.97;;;2.40;;
11453;SDS011;5783;55.174;61.310;2023-01-08T16:46:10;3.00;;;2.50;;
11453;SDS011;5783;55.174;61.310;2023-01-08T16:48:42;3.00;;;2.43;;
11453;SDS011;5783;55.174;61.310;2023-01-08T16:51:13;2.87;;;2.37;;
11453;SDS011;5783;55.174;61.310;2023-01-08T16:53:43;2.63;;;2.20;;
11453;SDS011;5783;55.174;61.310;2023-01-08T16:56:12;3.13;;;2.40;;
11453;SDS011;5783;55.174;61.310;2023-01-08T16:58:41;2.63;;;2.37;;
11453;SDS011;5783;55.174;61.310;2023-01-08T17:01:11;3.73;;;2.27;;
11453;SDS011;5783;55.174;61.310;2023-01-08T17:03:42;3.20;;;2.60;;
11453;SDS011;5783;55.174;61.310;2023-01-08T17:06:11;3.10;;;2.60;;
11453;SDS011;5783;55.174;61.310;2023-01-08T17:08:41;3.17;;;2.40;;
11453;SDS011;5783;55.174;61.310;2023-01-08T17:14:01;2.80;;;2.50;;
11453;SDS011;5783;55.174;61.310;2023-01-08T17:16:32;2.83;;;2.30;;
11453;SDS011;5783;55.174;61.310;2023-01-08T17:19:01;3.47;;;2.60;;
11453;SDS011;5783;55.174;61.310;2023-01-08T17:21:31;3.27;;;2.50;;
11453;SDS011;5783;55.174;61.310;2023-01-08T17:24:01;2.53;;;2.17;;
11453;SDS011;5783;55.174;61.310;2023-01-08T17:26:30;2.57;;;2.33;;
11453;SDS011;5783;55.174;61.310;2023-01-08T17:28:59;3.90;;;2.50;;
11453;SDS011;5783;55.174;61.310;2023-01-08T17:31:28;2.70;;;2.20;;
11453;SDS011;5783;55.174;61.310;2023-01-08T17:33:59;2.83;;;2.33;;
11453;SDS011;5783;55.174;61.310;2023-01-08T17:36:29;4.13;;;2.50;;
11453;SDS011;5783;55.174;61.310;2023-01-08T17:38:58;2.80;;;2.40;;
11453;SDS011;5783;55.174;61.310;2023-01-08T17:41:28;2.60;;;2.30;;
11453;SDS011;5783;55.174;61.310;2023-01-08T17:44:16;2.13;;;1.93;;
11453;SDS011;5783;55.174;61.310;2023-01-08T17:46:45;2.67;;;2.43;;
11453;SDS011;5783;55.174;61.310;2023-01-08T17:49:34;2.90;;;2.60;;
11453;SDS011;5783;55.174;61.310;2023-01-08T17:52:04;2.97;;;2.10;;
11453;SDS011;5783;55.174;61.310;2023-01-08T17:54:34;2.80;;;2.50;;
11453;SDS011;5783;55.174;61.310;2023-01-08T17:57:03;2.70;;;2.50;;
11453;SDS011;5783;55.174;61.310;2023-01-08T17:59:32;2.60;;;2.33;;
11453;SDS011;5783;55.174;61.310;2023-01-08T18:02:02;2.37;;;2.07;;
11453;SDS011;5783;55.174;61.310;2023-01-08T18:04:31;2.67;;;2.30;;
11453;SDS011;5783;55.174;61.310;2023-01-08T18:07:01;3.67;;;2.60;;
11453;SDS011;5783;55.174;61.310;2023-01-08T18:09:31;2.87;;;2.57;;
11453;SDS011;5783;55.174;61.310;2023-01-08T18:12:01;3.27;;;2.70;;
11453;SDS011;5783;55.174;61.310;2023-01-08T18:14:30;3.77;;;2.53;;
11453;SDS011;5783;55.174;61.310;2023-01-08T18:17:01;3.00;;;2.20;;
11453;SDS011;5783;55.174;61.310;2023-01-08T18:19:30;2.50;;;2.27;;
11453;SDS011;5783;55.174;61.310;2023-01-08T18:22:19;2.57;;;2.30;;
11453;SDS011;5783;55.174;61.310;2023-01-08T18:24:49;2.63;;;2.10;;
11453;SDS011;5783;55.174;61.310;2023-01-08T18:27:18;2.50;;;2.30;;
11453;SDS011;5783;55.174;61.310;2023-01-08T18:29:47;2.87;;;2.40;;
11453;SDS011;5783;55.174;61.310;2023-01-08T18:32:16;2.77;;;2.33;;
11453;SDS011;5783;55.174;61.310;2023-01-08T18:34:47;3.00;;;2.40;;
11453;SDS011;5783;55.174;61.310;2023-01-08T18:37:16;2.57;;;2.30;;
11453;SDS011;5783;55.174;61.310;2023-01-08T18:39:47;2.77;;;2.30;;